Time;durP1;ratioP1;P1;durP2;ratioP2;P2;SDS_P1;SDS_P2;PMS_P1;PMS_P2;Temp;Humidity;BMP_temperature;BMP_pressure;BME280_temperature;BME280_humidity;BME280_pressure;Samples;Min_cycle;Max_cycle;Signal;HPM_P1;HPM_P2
2024/01/18 00:01:07;;;;;;;17.15;12.00;;;2.70;99.90;;;;;;4953980;28;20625;-76
2024/01/18 00:03:37;;;;;;;15.43;11.73;;;2.60;99.90;;;;;;4959252;28;20222;-77
2024/01/18 00:06:04;;;;;;;15.82;11.85;;;2.70;99.90;;;;;;4964679;28;20565;-77
2024/01/18 00:08:30;;;;;;;16.35;11.68;;;2.70;99.90;;;;;;4953297;28;20196;-77
2024/01/18 00:10:55;;;;;;;17.63;12.40;;;2.70;99.90;;;;;;4971628;28;20543;-77
2024/01/18 00:13:21;;;;;;;18.00;10.37;;;2.60;99.90;;;;;;4974169;28;20257;-77
2024/01/18 00:15:46;;;;;;;24.07;13.43;;;2.60;99.90;;;;;;4962687;28;20203;-76
2024/01/18 00:18:12;;;;;;;13.13;10.60;;;2.60;99.90;;;;;;4970648;28;20242;-76
2024/01/18 00:20:38;;;;;;;22.53;12.13;;;2.60;99.90;;;;;;4970839;28;20647;-77
2024/01/18 00:23:04;;;;;;;13.90;10.90;;;2.60;99.90;;;;;;4971305;28;20265;-77
2024/01/18 00:25:29;;;;;;;15.27;11.40;;;2.60;99.90;;;;;;4971306;28;20174;-76
2024/01/18 00:27:55;;;;;;;16.77;12.37;;;2.60;99.90;;;;;;4942903;28;20191;-77
2024/01/18 00:30:21;;;;;;;23.93;14.60;;;2.60;99.90;;;;;;4974623;28;20203;-77
2024/01/18 00:32:46;;;;;;;14.63;10.97;;;2.60;99.90;;;;;;4974819;28;20183;-77
2024/01/18 00:35:12;;;;;;;13.90;10.67;;;2.60;99.90;;;;;;4972712;28;20191;-76
2024/01/18 00:37:38;;;;;;;15.70;10.30;;;2.60;99.90;;;;;;4946528;28;20214;-77
2024/01/18 00:40:04;;;;;;;14.73;11.20;;;2.60;99.90;;;;;;4951937;28;20646;-77
2024/01/18 00:42:30;;;;;;;14.10;10.30;;;2.50;99.90;;;;;;4973073;28;20265;-76
2024/01/18 00:44:55;;;;;;;17.10;10.83;;;2.60;99.90;;;;;;4968225;28;20266;-77
2024/01/18 00:47:21;;;;;;;16.63;12.17;;;2.50;99.90;;;;;;4974001;28;20234;-76
2024/01/18 00:49:47;;;;;;;14.70;10.90;;;2.50;99.90;;;;;;4947196;28;20164;-76
2024/01/18 00:52:13;;;;;;;15.23;10.67;;;2.50;99.90;;;;;;4943700;29;20215;-76
2024/01/18 00:54:38;;;;;;;17.00;11.30;;;2.50;99.90;;;;;;4955649;28;20183;-76
2024/01/18 00:57:04;;;;;;;18.20;11.80;;;2.50;99.90;;;;;;4974269;28;20294;-76
2024/01/18 00:59:30;;;;;;;17.70;11.77;;;2.50;99.90;;;;;;4971185;28;20179;-76
2024/01/18 01:01:55;;;;;;;13.60;9.93;;;2.50;99.90;;;;;;4958674;28;20734;-76
2024/01/18 01:04:21;;;;;;;15.27;11.23;;;2.50;99.90;;;;;;4972152;28;20254;-77
2024/01/18 01:06:47;;;;;;;16.63;11.30;;;2.50;99.90;;;;;;4956714;28;20246;-77
2024/01/18 01:09:13;;;;;;;15.80;10.97;;;2.50;99.90;;;;;;4972410;28;20184;-76
2024/01/18 01:11:38;;;;;;;13.20;10.00;;;2.50;99.90;;;;;;4972794;28;20179;-76
2024/01/18 01:14:04;;;;;;;19.40;10.60;;;2.50;99.90;;;;;;4956127;28;20180;-76
2024/01/18 01:16:29;;;;;;;13.47;10.10;;;2.50;99.90;;;;;;4972462;28;20254;-77
2024/01/18 01:18:55;;;;;;;20.30;11.03;;;2.50;99.90;;;;;;4956329;28;20180;-77
2024/01/18 01:21:21;;;;;;;13.97;10.27;;;2.50;99.90;;;;;;4972336;28;20179;-77
2024/01/18 01:23:48;;;;;;;15.60;10.60;;;2.50;99.90;;;;;;4968821;28;20196;-76
2024/01/18 01:26:17;;;;;;;16.65;12.55;;;2.50;99.90;;;;;;4969613;28;20187;-77
2024/01/18 01:28:43;;;;;;;16.10;11.68;;;2.50;99.90;;;;;;4976674;28;20188;-76
2024/01/18 01:31:09;;;;;;;18.30;12.65;;;2.50;99.90;;;;;;4973714;28;20183;-77
2024/01/18 01:33:38;;;;;;;14.57;12.00;;;2.50;99.90;;;;;;4947484;28;20191;-77
2024/01/18 01:36:05;;;;;;;14.57;10.80;;;2.50;99.90;;;;;;4967909;28;20192;-77
2024/01/18 01:38:31;;;;;;;14.77;11.20;;;2.50;99.90;;;;;;4953582;28;20230;-77
2024/01/18 01:40:57;;;;;;;16.73;11.73;;;2.50;99.90;;;;;;4956182;28;20522;-77
2024/01/18 01:43:23;;;;;;;16.00;11.33;;;2.50;99.90;;;;;;4972794;28;20211;-76
2024/01/18 01:45:48;;;;;;;15.10;11.63;;;2.50;99.90;;;;;;4932077;28;20248;-77
2024/01/18 01:48:14;;;;;;;18.77;10.93;;;2.40;99.90;;;;;;4970590;28;20693;-77
2024/01/18 01:50:40;;;;;;;16.63;10.90;;;2.50;99.90;;;;;;4973023;28;20180;-77
2024/01/18 01:53:09;;;;;;;13.77;10.95;;;2.40;99.90;;;;;;4970796;28;20670;-77
2024/01/18 01:55:36;;;;;;;15.23;10.60;;;2.40;99.90;;;;;;4971738;28;20194;-76
2024/01/18 01:58:02;;;;;;;14.07;9.27;;;2.40;99.90;;;;;;4942128;28;20278;-77
2024/01/18 02:00:28;;;;;;;11.52;9.63;;;2.40;99.90;;;;;;4958147;28;20219;-77
2024/01/18 02:02:54;;;;;;;20.17;11.87;;;2.40;99.90;;;;;;4955457;28;20653;-76
2024/01/18 02:05:20;;;;;;;14.83;11.13;;;2.40;99.90;;;;;;4971051;28;20184;-76
2024/01/18 02:07:47;;;;;;;15.67;12.13;;;2.30;99.90;;;;;;4971258;28;20619;-76
2024/01/18 02:10:13;;;;;;;16.05;11.80;;;2.30;99.90;;;;;;4966668;28;20193;-76
2024/01/18 02:12:39;;;;;;;15.03;11.20;;;2.30;99.90;;;;;;4962018;28;20184;-76
2024/01/18 02:15:07;;;;;;;13.27;9.80;;;2.30;99.90;;;;;;4954856;28;20587;-76
2024/01/18 02:17:32;;;;;;;15.63;10.25;;;2.30;99.90;;;;;;4972110;28;20203;-76
2024/01/18 02:19:58;;;;;;;18.20;12.73;;;2.20;99.90;;;;;;4972843;28;20593;-76
2024/01/18 02:22:27;;;;;;;17.67;12.50;;;2.30;99.90;;;;;;4955563;28;20231;-76
2024/01/18 02:25:06;;;;;;;19.92;12.75;;;2.20;99.90;;;;;;4967836;28;20180;-76
2024/01/18 02:27:32;;;;;;;16.55;11.73;;;2.20;99.90;;;;;;4969838;28;20187;-76
2024/01/18 02:29:57;;;;;;;15.97;11.47;;;2.20;99.90;;;;;;4970545;28;20259;-76
2024/01/18 02:32:23;;;;;;;14.27;10.10;;;2.20;99.90;;;;;;4967317;28;20184;-76
2024/01/18 02:34:49;;;;;;;13.73;11.30;;;2.20;99.90;;;;;;4938747;28;20612;-75
2024/01/18 02:37:14;;;;;;;17.13;10.90;;;2.20;99.90;;;;;;4972289;28;20689;-75
2024/01/18 02:39:40;;;;;;;11.13;9.83;;;2.20;99.90;;;;;;4972481;28;20650;-75
2024/01/18 02:42:06;;;;;;;14.63;11.13;;;2.20;99.90;;;;;;4973286;28;20204;-75
2024/01/18 02:44:32;;;;;;;16.30;10.60;;;2.20;99.90;;;;;;4964398;28;20192;-75
2024/01/18 02:46:58;;;;;;;13.03;10.07;;;2.20;99.90;;;;;;4953571;28;21228;-75
2024/01/18 02:49:24;;;;;;;13.50;10.50;;;2.30;99.90;;;;;;4971765;28;21148;-76
2024/01/18 02:51:49;;;;;;;13.70;10.23;;;2.30;99.90;;;;;;4970596;28;20175;-75
2024/01/18 02:54:15;;;;;;;15.77;11.17;;;2.30;99.90;;;;;;4970382;28;20184;-76
2024/01/18 02:56:41;;;;;;;15.77;10.90;;;2.30;99.90;;;;;;4946641;28;20199;-76
2024/01/18 02:59:07;;;;;;;16.03;10.33;;;2.30;99.90;;;;;;4972041;28;20575;-76
2024/01/18 03:01:32;;;;;;;15.33;10.27;;;2.30;99.90;;;;;;4953963;28;21121;-76
2024/01/18 03:03:58;;;;;;;15.07;10.83;;;2.30;99.90;;;;;;4953935;28;20199;-76
2024/01/18 03:06:23;;;;;;;18.20;11.90;;;2.40;99.90;;;;;;4970413;28;20226;-76
2024/01/18 03:08:49;;;;;;;16.20;11.90;;;2.40;99.90;;;;;;4971356;28;20498;-75
2024/01/18 03:11:15;;;;;;;12.07;10.50;;;2.40;99.90;;;;;;4954282;28;20241;-75
2024/01/18 03:13:41;;;;;;;18.70;13.38;;;2.40;99.90;;;;;;4969734;28;20598;-76
2024/01/18 03:16:08;;;;;;;15.50;11.00;;;2.40;99.90;;;;;;4931617;28;20538;-76
2024/01/18 03:18:35;;;;;;;14.80;10.80;;;2.40;99.90;;;;;;4970513;28;20634;-76
2024/01/18 03:21:06;;;;;;;14.77;10.93;;;2.40;99.90;;;;;;4964079;28;20168;-75
2024/01/18 03:23:32;;;;;;;15.77;11.02;;;2.40;99.90;;;;;;4953360;28;20214;-76
2024/01/18 03:25:58;;;;;;;15.83;10.83;;;2.40;99.90;;;;;;4971454;28;20172;-75
2024/01/18 03:28:23;;;;;;;15.00;11.17;;;2.40;99.90;;;;;;4969958;28;20241;-76
2024/01/18 03:30:49;;;;;;;17.00;11.57;;;2.40;99.90;;;;;;4968596;28;20195;-75
2024/01/18 03:33:15;;;;;;;14.20;11.30;;;2.40;99.90;;;;;;4944799;28;20184;-75
2024/01/18 03:35:42;;;;;;;16.30;11.30;;;2.40;99.90;;;;;;4968119;28;20176;-75
2024/01/18 03:38:08;;;;;;;16.23;10.88;;;2.40;99.90;;;;;;4953661;28;20291;-75
2024/01/18 03:40:35;;;;;;;18.05;11.55;;;2.40;99.90;;;;;;4971192;28;20180;-76
2024/01/18 03:43:01;;;;;;;16.40;11.57;;;2.40;99.90;;;;;;4941648;28;20214;-76
2024/01/18 03:45:27;;;;;;;16.43;11.10;;;2.50;99.90;;;;;;4946238;28;20181;-76
2024/01/18 03:47:52;;;;;;;19.03;11.93;;;2.40;99.90;;;;;;4970309;28;20689;-76
2024/01/18 03:50:19;;;;;;;14.87;12.57;;;2.40;99.90;;;;;;4970099;28;20172;-76
2024/01/18 03:52:44;;;;;;;16.23;11.00;;;2.40;99.90;;;;;;4954160;28;20175;-76
2024/01/18 03:55:10;;;;;;;18.17;11.13;;;2.40;99.90;;;;;;4961803;28;20654;-76
2024/01/18 03:57:36;;;;;;;13.37;10.27;;;2.50;99.90;;;;;;4938757;28;20212;-76
2024/01/18 04:00:02;;;;;;;15.83;11.90;;;2.40;99.90;;;;;;4973616;28;20194;-75
2024/01/18 04:02:29;;;;;;;16.00;10.35;;;2.40;99.90;;;;;;4966611;28;20196;-76
2024/01/18 04:04:55;;;;;;;13.77;11.40;;;2.40;99.90;;;;;;4966997;28;20182;-76
2024/01/18 04:07:22;;;;;;;13.10;10.10;;;2.40;99.90;;;;;;4964774;28;20196;-76
2024/01/18 04:09:47;;;;;;;13.80;10.27;;;2.40;99.90;;;;;;4975348;28;20175;-76
2024/01/18 04:12:14;;;;;;;15.20;11.40;;;2.40;99.90;;;;;;4973621;28;20175;-76
2024/01/18 04:14:43;;;;;;;15.73;11.82;;;2.40;99.90;;;;;;4949474;28;20607;-76
2024/01/18 04:17:12;;;;;;;13.82;10.63;;;2.40;99.90;;;;;;4973734;28;20191;-76
2024/01/18 04:19:41;;;;;;;14.07;10.43;;;2.40;99.90;;;;;;4957768;28;20274;-76
2024/01/18 04:22:06;;;;;;;15.13;11.80;;;2.40;99.90;;;;;;4973888;28;20204;-76
2024/01/18 04:24:33;;;;;;;16.07;12.63;;;2.40;99.90;;;;;;4974249;28;20199;-76
2024/01/18 04:26:58;;;;;;;15.65;12.27;;;2.40;99.90;;;;;;4941815;28;20602;-76
2024/01/18 04:29:24;;;;;;;16.40;12.47;;;2.40;99.90;;;;;;4958947;28;20524;-76
2024/01/18 04:31:50;;;;;;;13.50;11.53;;;2.30;99.90;;;;;;4972104;28;20180;-77
2024/01/18 04:34:15;;;;;;;16.60;12.00;;;2.30;99.90;;;;;;4967342;28;20176;-76
2024/01/18 04:36:44;;;;;;;14.23;11.83;;;2.30;99.90;;;;;;4961752;28;20200;-76
2024/01/18 04:39:09;;;;;;;14.73;12.63;;;2.30;99.90;;;;;;4963263;28;20204;-76
2024/01/18 04:41:35;;;;;;;15.77;12.60;;;2.30;99.90;;;;;;4946382;28;20227;-76
2024/01/18 04:44:01;;;;;;;16.63;12.97;;;2.30;99.90;;;;;;4956499;28;20211;-76
2024/01/18 04:46:28;;;;;;;17.35;13.43;;;2.30;99.90;;;;;;4957076;28;20992;-76
2024/01/18 04:48:53;;;;;;;15.77;13.15;;;2.30;99.90;;;;;;4956257;28;20218;-76
2024/01/18 04:51:22;;;;;;;15.47;13.33;;;2.30;99.90;;;;;;4967366;28;20207;-76
2024/01/18 04:53:51;;;;;;;16.55;11.60;;;2.30;99.90;;;;;;4963514;28;20601;-76
2024/01/18 04:56:17;;;;;;;17.10;12.63;;;2.30;99.90;;;;;;4973185;28;20530;-76
2024/01/18 04:58:45;;;;;;;16.03;12.70;;;2.30;99.90;;;;;;4974426;28;20212;-76
2024/01/18 05:01:10;;;;;;;19.17;12.75;;;2.40;99.90;;;;;;4974560;28;20191;-76
2024/01/18 05:03:37;;;;;;;15.82;12.63;;;2.40;99.90;;;;;;4972085;28;20258;-76
2024/01/18 05:06:03;;;;;;;20.97;14.83;;;2.40;99.90;;;;;;4957171;28;20577;-76
2024/01/18 05:08:29;;;;;;;18.43;13.13;;;2.40;99.90;;;;;;4972788;28;20222;-76
2024/01/18 05:10:55;;;;;;;18.52;14.40;;;2.40;99.90;;;;;;4971171;28;20682;-76
2024/01/18 05:13:21;;;;;;;18.53;12.73;;;2.40;99.90;;;;;;4973500;28;20275;-76
2024/01/18 05:15:47;;;;;;;19.50;12.27;;;2.40;99.90;;;;;;4966135;28;20653;-76
2024/01/18 05:18:14;;;;;;;17.07;12.90;;;2.40;99.90;;;;;;4972566;28;20241;-76
2024/01/18 05:20:40;;;;;;;16.83;14.85;;;2.30;99.90;;;;;;4974040;28;20591;-76
2024/01/18 05:23:06;;;;;;;15.88;13.18;;;2.40;99.90;;;;;;4974066;28;20210;-76
2024/01/18 05:25:32;;;;;;;21.77;14.38;;;2.40;99.90;;;;;;4972046;28;20227;-76
2024/01/18 05:27:59;;;;;;;16.88;13.60;;;2.30;99.90;;;;;;4939900;28;20230;-75
2024/01/18 05:30:25;;;;;;;16.85;13.43;;;2.40;99.90;;;;;;4956750;28;20223;-75
2024/01/18 05:32:51;;;;;;;15.90;12.93;;;2.40;99.90;;;;;;4972573;28;20195;-75
2024/01/18 05:35:16;;;;;;;15.10;13.35;;;2.40;99.90;;;;;;4971854;28;20230;-75
2024/01/18 05:37:42;;;;;;;18.20;14.40;;;2.40;99.90;;;;;;4973272;28;20618;-75
2024/01/18 05:40:09;;;;;;;17.27;12.33;;;2.40;99.90;;;;;;4973627;28;20175;-76
2024/01/18 05:42:35;;;;;;;15.55;13.30;;;2.40;99.90;;;;;;4956227;28;20203;-75
2024/01/18 05:45:00;;;;;;;15.17;13.37;;;2.40;99.90;;;;;;4955517;28;20175;-76
2024/01/18 05:47:26;;;;;;;19.10;16.83;;;2.40;99.90;;;;;;4975210;28;20651;-76
2024/01/18 05:49:52;;;;;;;16.10;13.40;;;2.40;99.90;;;;;;4958521;28;20263;-75
2024/01/18 05:52:18;;;;;;;19.70;14.60;;;2.40;99.90;;;;;;4972380;28;20180;-75
2024/01/18 05:54:44;;;;;;;22.00;15.30;;;2.40;99.90;;;;;;4972336;28;20206;-75
2024/01/18 05:57:10;;;;;;;18.70;13.63;;;2.40;99.90;;;;;;4965150;28;20203;-76
2024/01/18 05:59:35;;;;;;;19.60;14.67;;;2.40;99.90;;;;;;4973532;28;20526;-76
2024/01/18 06:02:01;;;;;;;20.73;13.67;;;2.40;99.90;;;;;;4964072;28;20591;-77
2024/01/18 06:04:30;;;;;;;17.10;14.00;;;2.40;99.90;;;;;;4971264;28;20268;-76
2024/01/18 06:06:56;;;;;;;19.25;15.00;;;2.40;99.90;;;;;;4973088;28;20200;-76
2024/01/18 06:09:22;;;;;;;20.65;15.23;;;2.40;99.90;;;;;;4971674;28;20266;-76
2024/01/18 06:11:48;;;;;;;14.30;12.60;;;2.40;99.90;;;;;;4970788;28;20211;-76
2024/01/18 06:14:15;;;;;;;17.88;13.82;;;2.40;99.90;;;;;;4957747;28;21191;-77
2024/01/18 06:16:41;;;;;;;20.65;13.90;;;2.40;99.90;;;;;;4973212;28;20664;-76
2024/01/18 06:19:07;;;;;;;20.50;15.13;;;2.40;99.90;;;;;;4960434;28;20184;-74
2024/01/18 06:21:33;;;;;;;19.37;14.23;;;2.40;99.90;;;;;;4966150;28;20177;-74
2024/01/18 06:23:59;;;;;;;19.70;14.63;;;2.40;99.90;;;;;;4968074;28;20635;-74
2024/01/18 06:26:24;;;;;;;18.97;14.40;;;2.40;99.90;;;;;;4967461;28;20188;-74
2024/01/18 06:28:50;;;;;;;20.90;14.90;;;2.40;99.90;;;;;;4970648;28;20184;-74
2024/01/18 06:31:19;;;;;;;27.27;16.03;;;2.50;99.90;;;;;;4961760;28;20655;-74
2024/01/18 06:33:45;;;;;;;20.73;14.00;;;2.40;99.90;;;;;;4965723;28;20235;-73
2024/01/18 06:36:12;;;;;;;17.90;13.60;;;2.50;99.90;;;;;;4963866;28;20208;-74
2024/01/18 06:38:37;;;;;;;19.40;14.20;;;2.40;99.90;;;;;;4963892;28;20270;-74
2024/01/18 06:41:04;;;;;;;17.40;13.93;;;2.50;99.90;;;;;;4954990;28;20187;-74
2024/01/18 06:43:29;;;;;;;17.05;14.05;;;2.50;99.90;;;;;;4970918;28;20207;-73
2024/01/18 06:45:56;;;;;;;14.57;13.03;;;2.50;99.90;;;;;;4954786;28;20242;-73
2024/01/18 06:48:22;;;;;;;16.90;13.65;;;2.50;99.90;;;;;;4970566;28;20211;-73
2024/01/18 06:50:48;;;;;;;16.02;12.32;;;2.50;99.90;;;;;;4972342;28;20234;-73
2024/01/18 06:53:14;;;;;;;16.17;12.60;;;2.60;99.90;;;;;;4954276;28;20183;-74
2024/01/18 06:55:40;;;;;;;15.90;13.30;;;2.60;99.90;;;;;;4971785;28;20211;-73
2024/01/18 06:58:06;;;;;;;18.58;13.90;;;2.60;99.90;;;;;;4967535;28;20192;-73
2024/01/18 07:00:32;;;;;;;21.20;13.50;;;2.60;99.90;;;;;;4957883;28;20184;-73
2024/01/18 07:02:58;;;;;;;16.27;12.55;;;2.60;99.90;;;;;;4952763;28;20195;-74
2024/01/18 07:05:24;;;;;;;19.90;13.90;;;2.60;99.90;;;;;;4964099;28;20202;-73
2024/01/18 07:07:50;;;;;;;16.35;12.82;;;2.60;99.90;;;;;;4971707;28;20199;-73
2024/01/18 07:10:17;;;;;;;15.40;12.68;;;2.60;99.90;;;;;;4967850;28;20180;-73
2024/01/18 07:12:44;;;;;;;22.23;16.70;;;2.60;99.90;;;;;;4967668;28;20251;-77
2024/01/18 07:15:10;;;;;;;18.33;14.38;;;2.70;99.90;;;;;;4971243;28;20645;-77
2024/01/18 07:17:36;;;;;;;17.60;14.43;;;2.70;99.90;;;;;;4954517;28;20214;-76
2024/01/18 07:20:04;;;;;;;15.63;12.60;;;2.70;99.90;;;;;;4954565;28;20599;-76
2024/01/18 07:22:30;;;;;;;20.17;13.20;;;2.70;99.90;;;;;;4956128;28;20231;-75
2024/01/18 07:24:56;;;;;;;17.77;13.10;;;2.60;99.90;;;;;;4952596;28;20254;-76
2024/01/18 07:27:21;;;;;;;19.13;15.20;;;2.70;99.90;;;;;;4965556;28;21102;-76
2024/01/18 07:29:50;;;;;;;16.60;14.20;;;2.70;99.90;;;;;;4969131;28;20579;-77
2024/01/18 07:32:17;;;;;;;21.23;17.35;;;2.70;99.90;;;;;;4954388;28;20188;-76
2024/01/18 07:34:42;;;;;;;21.75;15.00;;;2.60;99.90;;;;;;4930047;29;20215;-77
2024/01/18 07:37:13;;;;;;;18.70;14.40;;;2.60;99.90;;;;;;4969701;28;20258;-75
2024/01/18 07:39:40;;;;;;;19.35;13.27;;;2.60;99.90;;;;;;4973514;28;20583;-76
2024/01/18 07:42:07;;;;;;;14.93;12.13;;;2.60;99.90;;;;;;4946418;28;20672;-76
2024/01/18 07:44:34;;;;;;;17.17;14.15;;;2.60;99.90;;;;;;4969967;28;20662;-76
2024/01/18 07:47:00;;;;;;;13.68;12.05;;;2.60;99.90;;;;;;4971144;28;20590;-76
2024/01/18 07:49:26;;;;;;;19.85;14.07;;;2.60;99.90;;;;;;4953531;28;20176;-76
2024/01/18 07:51:52;;;;;;;18.80;13.57;;;2.70;99.90;;;;;;4964435;28;20180;-76
2024/01/18 07:54:18;;;;;;;22.60;14.85;;;2.70;99.90;;;;;;4970011;28;20199;-77
2024/01/18 07:56:44;;;;;;;20.33;14.80;;;2.70;99.90;;;;;;4970888;28;20199;-76
2024/01/18 07:59:12;;;;;;;18.07;13.77;;;2.60;99.90;;;;;;4961985;28;20176;-76
2024/01/18 08:01:40;;;;;;;20.20;15.50;;;2.60;99.90;;;;;;4971800;28;20180;-76
2024/01/18 08:04:05;;;;;;;19.73;13.45;;;2.60;99.90;;;;;;4953834;28;20323;-76
2024/01/18 08:06:32;;;;;;;20.50;14.60;;;2.60;99.90;;;;;;4952966;28;20275;-77
2024/01/18 08:08:57;;;;;;;15.98;13.75;;;2.60;99.90;;;;;;4966063;28;20586;-77
2024/01/18 08:11:23;;;;;;;19.00;14.40;;;2.60;99.90;;;;;;4971770;28;20179;-77
2024/01/18 08:13:49;;;;;;;18.57;13.07;;;2.60;99.90;;;;;;4969892;28;20183;-77
2024/01/18 08:16:14;;;;;;;19.43;14.37;;;2.60;99.90;;;;;;4971315;28;20183;-76
2024/01/18 08:18:40;;;;;;;17.33;14.63;;;2.60;99.90;;;;;;4954116;28;20207;-77
2024/01/18 08:21:06;;;;;;;20.57;15.97;;;2.60;99.90;;;;;;4964294;28;20185;-76
2024/01/18 08:23:32;;;;;;;20.10;15.05;;;2.60;99.90;;;;;;4945762;28;20207;-76
2024/01/18 08:25:58;;;;;;;19.07;14.43;;;2.60;99.90;;;;;;4953882;28;20238;-76
2024/01/18 08:28:24;;;;;;;21.30;15.63;;;2.60;99.90;;;;;;4970927;28;20607;-76
2024/01/18 08:30:50;;;;;;;19.27;15.03;;;2.60;99.90;;;;;;4969504;28;20187;-75
2024/01/18 08:33:20;;;;;;;17.73;15.03;;;2.50;99.90;;;;;;4957214;28;20634;-76
2024/01/18 08:35:45;;;;;;;19.52;14.52;;;2.50;99.90;;;;;;4960000;28;20188;-76
2024/01/18 08:38:11;;;;;;;19.30;13.70;;;2.50;99.90;;;;;;4966322;28;20564;-76
2024/01/18 08:40:37;;;;;;;20.47;16.50;;;2.40;99.90;;;;;;4968999;28;20191;-76
2024/01/18 08:43:03;;;;;;;20.67;16.37;;;2.40;99.90;;;;;;4966668;28;20208;-76
2024/01/18 08:45:31;;;;;;;21.13;15.37;;;2.30;99.90;;;;;;4946723;28;20677;-75
2024/01/18 08:47:57;;;;;;;21.67;15.57;;;2.30;99.90;;;;;;4968465;28;20638;-75
2024/01/18 08:50:24;;;;;;;20.60;14.47;;;2.20;99.90;;;;;;4949617;28;20183;-75
2024/01/18 08:52:53;;;;;;;23.65;17.30;;;2.20;99.90;;;;;;4958102;28;20614;-75
2024/01/18 08:55:19;;;;;;;20.20;15.05;;;2.10;99.90;;;;;;4959254;28;20214;-76
2024/01/18 08:57:46;;;;;;;24.15;14.48;;;2.10;99.90;;;;;;4972695;28;20576;-76
2024/01/18 09:00:17;;;;;;;18.08;14.70;;;2.00;99.90;;;;;;4971285;28;20841;-76
2024/01/18 09:02:46;;;;;;;23.33;17.00;;;2.00;99.90;;;;;;4956731;28;20208;-76
2024/01/18 09:05:12;;;;;;;17.55;14.30;;;2.00;99.90;;;;;;4962533;28;20286;-76
2024/01/18 09:07:39;;;;;;;20.73;14.43;;;2.00;99.90;;;;;;4948459;28;20203;-74
2024/01/18 09:10:07;;;;;;;17.73;14.30;;;2.00;99.90;;;;;;4969608;28;20231;-76
2024/01/18 09:12:32;;;;;;;23.45;16.40;;;2.00;99.90;;;;;;4972887;28;20633;-74
2024/01/18 09:14:58;;;;;;;23.53;17.23;;;2.00;99.90;;;;;;4972052;28;20211;-77
2024/01/18 09:17:24;;;;;;;21.87;16.10;;;2.10;99.90;;;;;;4971599;28;20204;-76
2024/01/18 09:19:50;;;;;;;22.03;16.33;;;2.10;99.90;;;;;;4956654;28;20183;-76
2024/01/18 09:22:16;;;;;;;21.23;16.60;;;2.20;99.90;;;;;;4946747;28;20215;-76
2024/01/18 09:24:42;;;;;;;22.53;17.17;;;2.20;99.90;;;;;;4937629;28;20176;-77
2024/01/18 09:27:09;;;;;;;21.63;16.10;;;2.30;99.90;;;;;;4972346;28;20231;-77
2024/01/18 09:29:36;;;;;;;19.38;15.77;;;2.30;99.90;;;;;;4958899;28;20208;-76
2024/01/18 09:32:03;;;;;;;27.00;18.25;;;2.40;99.90;;;;;;4967899;28;20192;-77
2024/01/18 09:34:29;;;;;;;21.65;17.90;;;2.40;99.90;;;;;;4972269;28;20180;-80
2024/01/18 09:36:56;;;;;;;21.93;16.93;;;2.50;99.90;;;;;;4955549;28;20191;-76
2024/01/18 09:39:22;;;;;;;23.40;17.08;;;2.60;99.90;;;;;;4973221;28;20657;-76
2024/01/18 09:41:55;;;;;;;20.93;15.80;;;2.60;99.90;;;;;;4964576;28;20199;-76
2024/01/18 09:44:30;;;;;;;19.48;15.55;;;2.60;99.90;;;;;;4966862;28;20190;-78
2024/01/18 09:46:57;;;;;;;20.38;16.27;;;2.70;99.90;;;;;;4967300;28;20566;-77
2024/01/18 09:49:24;;;;;;;23.98;17.73;;;2.70;99.90;;;;;;4966708;28;20203;-77
2024/01/18 09:51:51;;;;;;;17.55;14.35;;;2.70;99.90;;;;;;4964200;28;20668;-77
2024/01/18 09:54:18;;;;;;;18.58;16.00;;;2.80;99.90;;;;;;4934354;29;20234;-76
2024/01/18 09:56:45;;;;;;;26.35;17.50;;;2.80;99.90;;;;;;4951986;28;20701;-77
2024/01/18 09:59:16;;;;;;;19.17;16.45;;;2.80;99.90;;;;;;4950711;28;20192;-77
2024/01/18 10:01:42;;;;;;;20.52;18.02;;;2.90;99.90;;;;;;4950963;28;20185;-77
2024/01/18 10:04:12;;;;;;;21.13;16.20;;;2.90;99.90;;;;;;4935833;29;20425;-77
2024/01/18 10:06:40;;;;;;;23.85;17.20;;;2.90;99.90;;;;;;4955459;28;20195;-77
2024/01/18 10:09:11;;;;;;;22.35;16.63;;;3.00;99.90;;;;;;4957760;28;20176;-76
2024/01/18 10:11:41;;;;;;;21.10;17.10;;;3.00;99.90;;;;;;4954171;28;20181;-76
2024/01/18 10:14:07;;;;;;;20.73;18.50;;;3.00;99.90;;;;;;4952032;28;20185;-77
2024/01/18 10:16:38;;;;;;;20.50;16.48;;;3.10;99.90;;;;;;4920540;28;20172;-76
2024/01/18 10:19:05;;;;;;;22.83;18.38;;;3.10;99.90;;;;;;4951885;28;20200;-77
2024/01/18 10:21:35;;;;;;;23.08;16.70;;;3.10;99.90;;;;;;4954094;28;20207;-78
2024/01/18 10:24:03;;;;;;;30.67;18.65;;;3.10;99.90;;;;;;4936210;28;20573;-77
2024/01/18 10:26:33;;;;;;;25.90;17.08;;;3.20;99.90;;;;;;4950415;28;20542;-78
2024/01/18 10:28:59;;;;;;;24.65;19.10;;;3.20;99.90;;;;;;4953837;28;20531;-78
2024/01/18 10:31:25;;;;;;;21.60;16.77;;;3.20;99.90;;;;;;4936400;29;20177;-76
2024/01/18 10:33:51;;;;;;;26.40;18.40;;;3.20;99.90;;;;;;4951681;28;20207;-77
2024/01/18 10:36:18;;;;;;;22.13;15.70;;;3.20;99.90;;;;;;4950766;28;20193;-76
2024/01/18 10:38:43;;;;;;;24.92;18.17;;;3.30;99.90;;;;;;4935623;29;20200;-77
2024/01/18 10:41:10;;;;;;;21.30;17.77;;;3.30;99.90;;;;;;4953379;28;20239;-76
2024/01/18 10:43:37;;;;;;;22.45;17.85;;;3.30;99.90;;;;;;4935592;29;20683;-76
2024/01/18 10:46:04;;;;;;;20.58;17.95;;;3.40;99.90;;;;;;4954545;28;20187;-76
2024/01/18 10:48:31;;;;;;;23.52;17.88;;;3.40;99.90;;;;;;4935572;29;20204;-77
2024/01/18 10:50:58;;;;;;;22.30;17.85;;;3.40;99.90;;;;;;4951268;28;20184;-77
2024/01/18 10:53:25;;;;;;;23.27;18.33;;;3.40;99.90;;;;;;4951127;28;20244;-81
2024/01/18 10:55:54;;;;;;;23.27;17.73;;;3.40;99.90;;;;;;4934960;29;20251;-77
2024/01/18 10:58:20;;;;;;;20.25;18.23;;;3.40;99.90;;;;;;4934482;28;20196;-77
2024/01/18 11:00:46;;;;;;;23.07;17.53;;;3.40;99.90;;;;;;4952102;28;20204;-78
2024/01/18 11:03:18;;;;;;;20.85;16.00;;;3.40;99.90;;;;;;4952393;28;20266;-77
2024/01/18 11:05:45;;;;;;;25.15;19.40;;;3.50;99.90;;;;;;4934682;28;20184;-78
2024/01/18 11:08:13;;;;;;;22.50;17.75;;;3.50;99.90;;;;;;4951903;28;20200;-77
2024/01/18 11:10:46;;;;;;;23.17;18.65;;;3.50;99.90;;;;;;4935919;28;20210;-78
2024/01/18 11:13:15;;;;;;;23.63;17.98;;;3.50;99.90;;;;;;4953918;28;20523;-78
2024/01/18 11:15:43;;;;;;;23.23;16.52;;;3.50;99.90;;;;;;4952167;28;20642;-78
2024/01/18 11:18:13;;;;;;;23.67;18.30;;;3.60;99.90;;;;;;4961504;28;20202;-78
2024/01/18 11:20:57;;;;;;;18.73;16.08;;;3.60;99.90;;;;;;4954657;28;20191;-77
2024/01/18 11:23:26;;;;;;;19.63;15.90;;;3.60;99.90;;;;;;4957164;28;20203;-78
2024/01/18 11:25:52;;;;;;;23.05;17.50;;;3.60;99.90;;;;;;4971039;28;20267;-77
2024/01/18 11:28:25;;;;;;;22.33;16.17;;;3.60;99.90;;;;;;4965058;28;20295;-77
2024/01/18 11:30:52;;;;;;;23.10;17.83;;;3.60;99.90;;;;;;4970479;28;20186;-77
2024/01/18 11:33:19;;;;;;;19.33;15.15;;;3.70;99.90;;;;;;4970003;28;20188;-78
2024/01/18 11:35:45;;;;;;;21.38;17.30;;;3.70;99.90;;;;;;4965493;28;20172;-78
2024/01/18 11:38:22;;;;;;;26.13;16.70;;;3.70;99.90;;;;;;4966624;28;20208;-77
2024/01/18 11:41:09;;;;;;;21.52;16.98;;;3.70;99.90;;;;;;4970030;28;20223;-77
2024/01/18 11:43:58;;;;;;;23.38;18.45;;;3.70;99.90;;;;;;4940326;28;20207;-77
2024/01/18 11:46:49;;;;;;;23.90;17.73;;;3.70;99.90;;;;;;4971122;28;20233;-77
2024/01/18 11:49:15;;;;;;;25.45;20.08;;;3.70;99.90;;;;;;4971254;28;20590;-78
2024/01/18 11:51:43;;;;;;;21.83;15.50;;;3.70;99.90;;;;;;4970299;28;20238;-77
2024/01/18 11:54:12;;;;;;;25.60;17.42;;;3.80;99.90;;;;;;4938231;28;20583;-77
2024/01/18 11:56:40;;;;;;;25.58;18.50;;;3.80;99.90;;;;;;4953684;28;20183;-80
2024/01/18 11:59:08;;;;;;;20.10;16.00;;;3.80;99.90;;;;;;4956779;28;20674;-81
2024/01/18 12:01:34;;;;;;;20.08;16.90;;;3.80;99.90;;;;;;4971600;28;20191;-81
2024/01/18 12:04:00;;;;;;;24.63;17.10;;;3.80;99.90;;;;;;4969832;28;20199;-80
2024/01/18 12:06:28;;;;;;;21.70;16.05;;;3.80;99.90;;;;;;4970087;28;20196;-81
2024/01/18 12:08:54;;;;;;;21.60;17.52;;;3.80;99.90;;;;;;4963361;28;20164;-82
2024/01/18 12:11:20;;;;;;;22.55;18.10;;;3.80;99.90;;;;;;4962019;28;20545;-79
2024/01/18 12:13:47;;;;;;;24.38;19.92;;;3.80;99.90;;;;;;4965638;28;20183;-79
2024/01/18 12:16:13;;;;;;;32.17;20.15;;;3.80;99.90;;;;;;4969916;28;20657;-79
2024/01/18 12:18:40;;;;;;;17.27;14.20;;;3.80;99.90;;;;;;4970826;28;20343;-80
2024/01/18 12:21:06;;;;;;;20.45;16.10;;;3.80;99.90;;;;;;4964069;28;20623;-81
2024/01/18 12:23:34;;;;;;;19.23;14.40;;;3.70;99.90;;;;;;4933526;28;20201;-81
2024/01/18 12:26:00;;;;;;;18.83;13.48;;;3.70;99.90;;;;;;4938053;28;20595;-82
2024/01/18 12:28:27;;;;;;;15.02;12.05;;;3.70;99.90;;;;;;4958460;28;20199;-82
2024/01/18 12:30:58;;;;;;;17.40;13.70;;;3.70;99.90;;;;;;4959483;28;20725;-82
2024/01/18 12:33:23;;;;;;;16.65;12.98;;;3.70;99.90;;;;;;4966202;28;20561;-81
2024/01/18 12:35:49;;;;;;;17.20;14.50;;;3.70;99.90;;;;;;4958794;28;20188;-81